createdAt,value
2023-05-23T00:02:00.509Z,13.02
2023-05-23T00:05:04.482Z,12.98
2023-05-23T00:08:05.457Z,12.93
2023-05-23T00:11:07.792Z,12.90
2023-05-23T00:14:08.550Z,12.87
2023-05-23T00:17:08.689Z,12.82
2023-05-23T00:20:09.480Z,12.79
2023-05-23T00:23:11.502Z,12.77
2023-05-23T00:26:11.565Z,12.74
2023-05-23T00:29:11.531Z,12.74
2023-05-23T00:32:11.481Z,12.73
2023-05-23T00:35:11.538Z,12.73
2023-05-23T00:38:13.530Z,12.72
2023-05-23T00:41:07.664Z,12.71
2023-05-23T00:44:07.509Z,12.69
2023-05-23T00:47:09.542Z,12.67
2023-05-23T00:50:09.590Z,12.63
2023-05-23T00:53:09.604Z,12.60
2023-05-23T00:56:09.732Z,12.56
2023-05-23T00:59:09.551Z,12.54
2023-05-23T01:02:10.822Z,12.52
2023-05-23T01:05:10.584Z,12.50
2023-05-23T01:08:12.820Z,12.48
2023-05-23T01:11:17.894Z,12.48
2023-05-23T01:14:28.050Z,12.48
2023-05-23T01:17:47.649Z,12.50
2023-05-23T01:20:56.635Z,12.49
2023-05-23T01:24:21.593Z,12.49
2023-05-23T01:27:57.613Z,12.48
2023-05-23T01:30:57.580Z,12.47
2023-05-23T01:33:59.559Z,12.47
2023-05-23T01:37:01.557Z,12.47
2023-05-23T01:40:03.641Z,12.46
2023-05-23T01:43:04.631Z,12.46
2023-05-23T01:46:06.737Z,12.46
2023-05-23T01:49:07.686Z,12.46
2023-05-23T01:52:07.739Z,12.44
2023-05-23T01:55:07.706Z,12.42
2023-05-23T01:58:08.690Z,12.39
2023-05-23T02:01:08.708Z,12.38
2023-05-23T02:04:08.622Z,12.36
2023-05-23T02:07:08.724Z,12.34
2023-05-23T02:10:08.687Z,12.32
2023-05-23T02:13:08.673Z,12.31
2023-05-23T02:16:13.219Z,12.31
2023-05-23T02:19:15.750Z,12.31
2023-05-23T02:22:15.697Z,12.31
2023-05-23T02:25:15.706Z,12.33
2023-05-23T02:28:15.690Z,12.33
2023-05-23T02:31:15.766Z,12.37
2023-05-23T02:34:18.420Z,12.40
2023-05-23T02:37:18.700Z,12.45
2023-05-23T02:40:18.734Z,12.49
2023-05-23T02:43:18.721Z,12.51
2023-05-23T02:46:19.793Z,12.56
2023-05-23T02:49:19.751Z,12.61
2023-05-23T02:52:19.787Z,12.66
2023-05-23T02:55:19.770Z,12.71
2023-05-23T02:58:19.872Z,12.76
2023-05-23T03:01:19.821Z,12.84
2023-05-23T03:04:20.779Z,12.91
2023-05-23T03:07:28.207Z,12.98
2023-05-23T03:10:28.755Z,13.05
2023-05-23T03:13:31.304Z,13.14
2023-05-23T03:16:31.810Z,13.22
2023-05-23T03:19:34.162Z,13.30
2023-05-23T03:22:35.867Z,13.40
2023-05-23T03:25:35.830Z,13.47
2023-05-23T03:28:35.881Z,13.56
2023-05-23T03:31:35.833Z,13.63
2023-05-23T03:34:36.818Z,13.72
2023-05-23T03:37:40.144Z,13.81
2023-05-23T03:40:39.965Z,13.86
2023-05-23T03:43:42.082Z,13.94
2023-05-23T03:46:46.099Z,14.02
2023-05-23T03:49:59.815Z,14.08
2023-05-23T03:53:00.864Z,14.15
2023-05-23T03:56:01.909Z,14.26
2023-05-23T03:59:02.105Z,14.35
2023-05-23T04:02:04.838Z,14.45
2023-05-23T04:05:04.898Z,14.57
2023-05-23T04:08:07.958Z,14.69
2023-05-23T04:11:07.868Z,14.82
2023-05-23T04:14:07.908Z,14.95
2023-05-23T04:17:07.907Z,15.07
2023-05-23T04:20:07.921Z,15.18
2023-05-23T04:23:07.912Z,15.33
2023-05-23T04:26:10.884Z,15.45
2023-05-23T04:29:17.911Z,15.60
2023-05-23T04:32:17.908Z,15.74
2023-05-23T04:35:18.950Z,15.84
2023-05-23T04:38:19.935Z,15.96
2023-05-23T04:41:21.921Z,16.04
2023-05-23T04:44:59.964Z,16.22
2023-05-23T04:48:27.945Z,16.41
2023-05-23T04:51:27.962Z,16.54
2023-05-23T04:54:37.933Z,16.66
2023-05-23T04:57:37.975Z,16.77
2023-05-23T05:00:40.207Z,16.99
2023-05-23T05:03:42.003Z,17.25
2023-05-23T05:06:41.987Z,17.54
2023-05-23T05:09:42.012Z,17.81
2023-05-23T05:12:41.959Z,18.09
2023-05-23T05:15:43.009Z,18.41
2023-05-23T05:18:44.059Z,18.72
2023-05-23T05:21:46.990Z,18.88
2023-05-23T05:24:47.069Z,18.90
2023-05-23T05:27:47.981Z,19.02
2023-05-23T05:30:49.009Z,19.18
2023-05-23T05:33:52.044Z,19.27
2023-05-23T05:36:54.075Z,19.44
2023-05-23T05:39:54.088Z,19.72
2023-05-23T05:42:55.047Z,19.91
2023-05-23T05:45:56.134Z,20.13
2023-05-23T05:48:57.050Z,20.57
2023-05-23T05:51:59.308Z,21.03
2023-05-23T05:55:01.106Z,21.34
2023-05-23T05:58:02.427Z,21.60
2023-05-23T06:01:18.158Z,21.87
2023-05-23T06:04:18.211Z,22.15
2023-05-23T06:07:18.138Z,22.43
2023-05-23T06:10:20.305Z,22.89
2023-05-23T06:13:22.083Z,23.16
2023-05-23T06:16:23.145Z,23.13
2023-05-23T06:19:23.188Z,23.11
2023-05-23T06:22:23.119Z,22.90
2023-05-23T06:25:23.113Z,22.55
2023-05-23T06:28:23.116Z,22.25
2023-05-23T06:31:23.200Z,21.98
2023-05-23T06:34:24.154Z,21.79
2023-05-23T06:37:24.143Z,21.98
2023-05-23T06:40:25.155Z,22.30
2023-05-23T06:43:25.129Z,22.51
2023-05-23T06:46:43.172Z,22.64
2023-05-23T06:49:43.160Z,22.73
2023-05-23T06:52:43.221Z,23.00
2023-05-23T06:55:43.374Z,23.53
2023-05-23T06:58:47.084Z,24.43
2023-05-23T07:01:49.271Z,25.22
2023-05-23T07:04:51.215Z,25.88
2023-05-23T07:08:10.166Z,26.19
2023-05-23T07:11:21.252Z,26.25
2023-05-23T07:14:24.225Z,26.03
2023-05-23T07:17:27.321Z,25.30
2023-05-23T07:20:28.267Z,25.03
2023-05-23T07:23:36.283Z,25.35
2023-05-23T07:26:36.282Z,25.87
2023-05-23T07:29:36.240Z,26.16
2023-05-23T07:32:37.436Z,26.34
2023-05-23T07:35:37.232Z,26.44
2023-05-23T07:38:37.263Z,26.73
2023-05-23T07:41:37.251Z,26.99
2023-05-23T07:44:37.242Z,27.06
2023-05-23T07:47:37.438Z,27.30
2023-05-23T07:50:38.392Z,27.40
2023-05-23T07:53:41.313Z,27.35
2023-05-23T07:56:42.317Z,27.59
2023-05-23T07:59:43.538Z,27.85
2023-05-23T08:03:03.307Z,27.77
2023-05-23T08:06:07.286Z,27.59
2023-05-23T08:09:07.343Z,27.60
2023-05-23T08:12:10.296Z,27.61
2023-05-23T08:15:10.331Z,27.48
2023-05-23T08:18:15.479Z,27.66
2023-05-23T08:21:15.569Z,28.17
2023-05-23T08:24:15.465Z,28.53
2023-05-23T08:27:17.464Z,29.03
2023-05-23T08:30:21.372Z,29.28
2023-05-23T08:33:21.383Z,29.49
2023-05-23T08:36:22.322Z,29.81
2023-05-23T08:39:22.391Z,29.80
2023-05-23T08:42:38.442Z,29.72
2023-05-23T08:45:40.435Z,30.14
2023-05-23T08:48:40.459Z,30.43
2023-05-23T08:51:41.424Z,30.68
2023-05-23T08:54:53.134Z,30.81
2023-05-23T08:57:55.433Z,31.01
2023-05-23T09:01:07.675Z,31.12
2023-05-23T09:04:11.622Z,31.11
2023-05-23T09:07:19.439Z,30.78
2023-05-23T09:10:28.444Z,30.53
2023-05-23T09:13:30.392Z,30.70
2023-05-23T09:16:32.533Z,30.98
2023-05-23T09:19:36.546Z,31.23
2023-05-23T09:22:46.650Z,31.52
2023-05-23T09:25:46.488Z,31.72
2023-05-23T09:28:48.460Z,31.83
2023-05-23T09:31:50.545Z,31.62
2023-05-23T09:34:56.527Z,31.54
2023-05-23T09:38:02.470Z,31.56
2023-05-23T09:41:03.482Z,31.83
2023-05-23T09:44:05.637Z,31.92
2023-05-23T09:47:07.670Z,31.95
2023-05-23T09:50:07.521Z,31.66
2023-05-23T09:53:07.486Z,31.23
2023-05-23T09:56:07.514Z,31.12
2023-05-23T09:59:08.593Z,31.52
2023-05-23T10:02:09.573Z,31.89
2023-05-23T10:05:09.530Z,31.99
2023-05-23T10:08:13.536Z,31.97
2023-05-23T10:11:28.512Z,32.16
2023-05-23T10:14:29.644Z,32.35
2023-05-23T10:17:52.669Z,32.25
2023-05-23T10:20:53.536Z,32.24
2023-05-23T10:23:54.576Z,32.10
2023-05-23T10:26:56.541Z,32.06
2023-05-23T10:29:56.558Z,32.03
2023-05-23T10:32:56.572Z,32.02
2023-05-23T10:36:21.627Z,32.26
2023-05-23T10:39:29.590Z,32.25
2023-05-23T10:42:58.601Z,32.28
2023-05-23T10:45:58.740Z,32.31
2023-05-23T10:48:58.634Z,32.31
2023-05-23T10:52:05.626Z,32.34
2023-05-23T10:55:06.613Z,32.48
2023-05-23T10:58:28.617Z,32.51
2023-05-23T11:01:28.683Z,32.72
2023-05-23T11:04:21.953Z,32.72
2023-05-23T11:07:44.666Z,32.37
2023-05-23T11:10:44.668Z,32.13
2023-05-23T11:14:08.673Z,32.03
2023-05-23T11:17:08.677Z,32.00
2023-05-23T11:20:14.638Z,31.99
2023-05-23T11:23:16.726Z,31.78
2023-05-23T11:26:17.751Z,31.67
2023-05-23T11:29:20.740Z,31.57
2023-05-23T11:32:24.881Z,31.62
2023-05-23T11:35:24.908Z,31.61
2023-05-23T11:38:24.707Z,31.68
2023-05-23T11:41:24.756Z,31.87
2023-05-23T11:44:25.696Z,32.02
2023-05-23T11:47:25.714Z,31.98
2023-05-23T11:50:26.799Z,31.84
2023-05-23T11:53:27.790Z,31.89
2023-05-23T11:56:27.797Z,32.03
2023-05-23T11:59:27.765Z,32.14
2023-05-23T12:02:27.852Z,31.97
2023-05-23T12:05:27.763Z,31.59
2023-05-23T12:08:27.740Z,31.43
2023-05-23T12:11:30.215Z,31.12
2023-05-23T12:14:31.768Z,30.86
2023-05-23T12:17:33.817Z,30.71
2023-05-23T12:20:33.958Z,30.46
2023-05-23T12:23:35.848Z,30.02
2023-05-23T12:26:35.836Z,29.78
2023-05-23T12:29:42.077Z,29.76
2023-05-23T12:32:44.864Z,29.76
2023-05-23T12:35:45.819Z,29.63
2023-05-23T12:38:50.864Z,29.40
2023-05-23T12:41:52.250Z,29.06
2023-05-23T12:44:54.854Z,28.65
2023-05-23T12:47:56.877Z,28.34
2023-05-23T12:50:56.815Z,28.46
2023-05-23T12:53:56.860Z,28.75
2023-05-23T12:56:59.100Z,28.97
2023-05-23T12:59:59.046Z,29.19
2023-05-23T13:02:59.881Z,29.13
2023-05-23T13:05:59.899Z,28.93
2023-05-23T13:09:03.295Z,28.90
2023-05-23T13:12:05.065Z,28.80
2023-05-23T13:15:05.974Z,28.53
2023-05-23T13:18:05.984Z,28.27
2023-05-23T13:21:05.998Z,28.11
2023-05-23T13:24:06.987Z,27.93
2023-05-23T13:27:06.918Z,27.74
2023-05-23T13:30:08.069Z,27.64
2023-05-23T13:33:08.979Z,27.71
2023-05-23T13:36:08.930Z,27.83
2023-05-23T13:39:08.938Z,27.84
2023-05-23T13:42:08.935Z,27.74
2023-05-23T13:45:10.003Z,27.66
2023-05-23T13:48:11.010Z,27.59
2023-05-23T13:51:12.161Z,27.58
2023-05-23T13:54:11.992Z,27.58
2023-05-23T13:57:26.991Z,27.58
2023-05-23T14:00:26.972Z,27.65
2023-05-23T14:03:27.091Z,27.65
2023-05-23T14:06:27.384Z,27.62
2023-05-23T14:09:30.010Z,27.53
2023-05-23T14:12:31.732Z,27.40
2023-05-23T14:15:34.668Z,27.30
2023-05-23T14:18:35.018Z,27.25
2023-05-23T14:21:35.205Z,27.20
2023-05-23T14:24:37.543Z,27.14
2023-05-23T14:27:38.007Z,27.01
2023-05-23T14:30:39.074Z,26.88
2023-05-23T14:33:39.115Z,26.84
2023-05-23T14:36:45.008Z,26.80
2023-05-23T14:39:45.276Z,26.73
2023-05-23T14:42:47.597Z,26.74
2023-05-23T14:45:51.516Z,26.73
2023-05-23T14:48:57.341Z,26.73
2023-05-23T14:51:58.091Z,26.64
2023-05-23T14:54:59.053Z,26.57
2023-05-23T14:58:19.049Z,26.52
2023-05-23T15:01:22.080Z,26.41
2023-05-23T15:04:23.481Z,26.31
2023-05-23T15:07:25.173Z,26.17
2023-05-23T15:10:25.156Z,25.96
2023-05-23T15:13:25.194Z,25.78
2023-05-23T15:16:25.217Z,25.61
2023-05-23T15:19:26.173Z,25.47
2023-05-23T15:25:47.870Z,25.34
2023-05-23T15:28:55.140Z,25.35
2023-05-23T15:31:56.246Z,25.32
2023-05-23T15:34:56.172Z,25.22
2023-05-23T15:37:56.160Z,25.14
2023-05-23T15:40:59.369Z,25.02
2023-05-23T15:43:59.210Z,24.97
2023-05-23T15:47:01.526Z,24.95
2023-05-23T15:50:02.378Z,24.98
2023-05-23T15:53:02.181Z,24.99
2023-05-23T15:56:03.245Z,24.97
2023-05-23T15:59:05.173Z,24.90
2023-05-23T16:02:06.406Z,24.79
2023-05-23T16:05:06.199Z,24.58
2023-05-23T16:08:06.181Z,24.25
2023-05-23T16:11:09.189Z,23.99
2023-05-23T16:14:09.265Z,23.71
2023-05-23T16:17:11.223Z,23.67
2023-05-23T16:20:12.212Z,23.72
2023-05-23T16:23:13.264Z,23.81
2023-05-23T16:26:13.225Z,23.89
2023-05-23T16:29:14.288Z,23.93
2023-05-23T16:32:14.400Z,23.86
2023-05-23T16:35:14.292Z,23.79
2023-05-23T16:38:15.251Z,23.75
2023-05-23T16:41:15.300Z,23.66
2023-05-23T16:44:15.365Z,23.52
2023-05-23T16:47:15.255Z,23.41
2023-05-23T16:50:15.272Z,23.36
2023-05-23T16:53:15.437Z,23.32
2023-05-23T16:56:15.306Z,23.23
2023-05-23T16:59:17.303Z,23.13
2023-05-23T17:02:17.367Z,23.04
2023-05-23T17:05:18.531Z,22.91
2023-05-23T17:08:19.311Z,22.73
2023-05-23T17:11:19.332Z,22.59
2023-05-23T17:14:19.328Z,22.49
2023-05-23T17:17:21.583Z,22.46
2023-05-23T17:20:22.344Z,22.41
2023-05-23T17:23:22.306Z,22.35
2023-05-23T17:26:22.325Z,22.32
2023-05-23T17:29:23.503Z,22.28
2023-05-23T17:32:23.371Z,22.23
2023-05-23T17:35:23.377Z,22.17
2023-05-23T17:38:23.396Z,22.09
2023-05-23T17:41:23.551Z,21.99
2023-05-23T17:44:23.363Z,21.88
2023-05-23T17:47:25.653Z,21.78
2023-05-23T17:50:25.544Z,21.68
2023-05-23T17:53:29.450Z,21.58
2023-05-23T17:56:31.392Z,21.50
2023-05-23T17:59:43.154Z,21.39
2023-05-23T18:02:43.553Z,21.29
2023-05-23T18:05:44.438Z,21.18
2023-05-23T18:08:46.472Z,21.04
2023-05-23T18:11:46.423Z,20.94
2023-05-23T18:14:46.684Z,20.82
2023-05-23T18:17:48.159Z,20.68
2023-05-23T18:20:50.405Z,20.55
2023-05-23T18:23:51.540Z,20.42
2023-05-23T18:26:51.517Z,20.31
2023-05-23T18:29:52.506Z,20.25
2023-05-23T18:32:54.513Z,20.18
2023-05-23T18:35:54.496Z,20.11
2023-05-23T18:38:55.536Z,20.06
2023-05-23T18:41:57.425Z,20.01
2023-05-23T18:44:57.512Z,19.96
2023-05-23T18:47:57.713Z,19.91
2023-05-23T18:50:57.513Z,19.86
2023-05-23T18:53:58.516Z,19.82
2023-05-23T18:56:59.572Z,19.78
2023-05-23T19:00:01.589Z,19.73
2023-05-23T19:03:02.636Z,19.69
2023-05-23T19:06:11.537Z,19.66
2023-05-23T19:09:15.562Z,19.62
2023-05-23T19:12:15.607Z,19.60
2023-05-23T19:15:16.517Z,19.57
2023-05-23T19:18:18.543Z,19.55
2023-05-23T19:21:18.602Z,19.52
2023-05-23T19:24:19.559Z,19.49
2023-05-23T19:27:20.632Z,19.45
2023-05-23T19:30:20.581Z,19.41
2023-05-23T19:33:23.589Z,19.38
2023-05-23T19:36:23.571Z,19.35
2023-05-23T19:39:24.565Z,19.33
2023-05-23T19:42:43.647Z,19.31
2023-05-23T19:45:44.706Z,19.28
2023-05-23T19:48:44.716Z,19.20
2023-05-23T19:51:44.702Z,19.15
2023-05-23T19:54:44.697Z,19.10
2023-05-23T19:57:44.594Z,19.08
2023-05-23T20:00:45.617Z,19.08
2023-05-23T20:03:47.654Z,19.06
2023-05-23T20:06:48.569Z,19.02
2023-05-23T20:09:48.670Z,18.97
2023-05-23T20:12:49.638Z,18.92
2023-05-23T20:15:49.661Z,18.88
2023-05-23T20:18:49.722Z,18.82
2023-05-23T20:21:49.679Z,18.76
2023-05-23T20:24:49.638Z,18.69
2023-05-23T20:27:49.725Z,18.64
2023-05-23T20:30:51.773Z,18.58
2023-05-23T20:33:52.713Z,18.54
2023-05-23T20:36:52.641Z,18.50
2023-05-23T20:39:54.686Z,18.47
2023-05-23T20:42:55.720Z,18.47
2023-05-23T20:45:55.691Z,18.43
2023-05-23T20:48:55.702Z,18.37
2023-05-23T20:51:55.711Z,18.28
2023-05-23T20:54:56.723Z,18.22
2023-05-23T20:58:01.606Z,18.16
2023-05-23T21:01:05.738Z,18.11
2023-05-23T21:04:06.706Z,18.05
2023-05-23T21:07:08.544Z,18.00
2023-05-23T21:10:20.717Z,17.95
2023-05-23T21:13:22.453Z,17.89
2023-05-23T21:16:25.014Z,17.84
2023-05-23T21:19:24.832Z,17.77
2023-05-23T21:22:25.798Z,17.72
2023-05-23T21:25:28.748Z,17.68
2023-05-23T21:28:30.770Z,17.62
2023-05-23T21:31:41.044Z,17.55
2023-05-23T21:34:41.771Z,17.46
2023-05-23T21:37:41.835Z,17.38
2023-05-23T21:40:43.037Z,17.33
2023-05-23T21:43:44.810Z,17.31
2023-05-23T21:46:46.984Z,17.30
2023-05-23T21:49:47.958Z,17.26
2023-05-23T21:52:52.831Z,17.21
2023-05-23T21:55:52.861Z,17.18
2023-05-23T21:58:53.885Z,17.14
2023-05-23T22:01:53.910Z,17.12
2023-05-23T22:04:53.846Z,17.08
2023-05-23T22:07:56.846Z,17.02
2023-05-23T22:10:57.831Z,16.95
2023-05-23T22:14:06.834Z,16.88
2023-05-23T22:17:07.845Z,16.80
2023-05-23T22:20:07.936Z,16.74
2023-05-23T22:23:09.845Z,16.69
2023-05-23T22:26:09.912Z,16.65
2023-05-23T22:29:10.905Z,16.60
2023-05-23T22:32:12.205Z,16.56
2023-05-23T22:35:12.916Z,16.53
2023-05-23T22:38:13.934Z,16.52
2023-05-23T22:41:13.906Z,16.49
2023-05-23T22:44:14.899Z,16.47
2023-05-23T22:47:15.937Z,16.45
2023-05-23T22:50:15.887Z,16.45
2023-05-23T22:53:15.916Z,16.43
2023-05-23T22:56:16.875Z,16.40
2023-05-23T22:59:16.956Z,16.38
2023-05-23T23:02:16.947Z,16.37
2023-05-23T23:05:18.949Z,16.36
2023-05-23T23:08:18.983Z,16.35
2023-05-23T23:11:19.144Z,16.34
2023-05-23T23:14:19.920Z,16.33
2023-05-23T23:17:21.042Z,16.31
2023-05-23T23:20:23.025Z,16.28
2023-05-23T23:23:15.993Z,16.21
2023-05-23T23:26:15.952Z,16.18
2023-05-23T23:29:15.931Z,16.15
2023-05-23T23:32:15.971Z,16.11
2023-05-23T23:35:15.974Z,16.09
2023-05-23T23:38:16.083Z,16.05
2023-05-23T23:41:16.015Z,16.01
2023-05-23T23:44:15.980Z,15.94
2023-05-23T23:47:15.991Z,15.89
2023-05-23T23:50:16.116Z,15.86
2023-05-23T23:53:16.008Z,15.85
2023-05-23T23:56:15.987Z,15.81
2023-05-23T23:59:15.999Z,15.75
